KTUP/TUP METAR and TAF weather

Enter ICAO airport designator
Station Type Date Time Source
KTUP METAR 2019/04/20 21:53 UTC NOAA

KTUP 202153Z 33013G21KT 10SM CLR 20/M04 A2989 RMK AO2 SLP120 T02001044


Station Type Date Time Source
KTUP Decoded METAR 2019/04/20 21:53 UTC NOAA

TUPELO REGIONAL AIRPORT, MS, United States (KTUP) 34-16N 88-46W 105M
Apr 20, 2019 - 05:53 PM EDT / 2019.04.20 2153 UTC
Wind: from the NNW (330 degrees) at 15 MPH (13 KT) gusting to 24 MPH (21 KT):0
Visibility: 10 mile(s):0
Sky conditions: clear
Temperature: 68.0 F (20.0 C)
Dew Point: 24.1 F (-4.4 C)
Relative Humidity: 18%
Pressure (altimeter): 29.89 in. Hg (1012 hPa)
ob: KTUP 202153Z 33013G21KT 10SM CLR 20/M04 A2989 RMK AO2 SLP120 T02001044
cycle: 22

Station Type Date Time Source
KTUP TAF 2019/04/20 21:30 UTC NOAA

TAF
AMD KTUP 202128Z 2021/2118 31010G19KT P6SM SKC
FM210000 27005KT P6SM SKC
FM210600 00000KT P6SM SKC
FM211400 22004KT P6SM SKC

Example: see airport list